createdAt,value
2023-04-15T00:02:30.509Z,1.67
2023-04-15T00:05:02.030Z,3.20
2023-04-15T00:07:33.917Z,1.20
2023-04-15T00:10:06.388Z,3.17
2023-04-15T00:12:38.046Z,1.77
2023-04-15T00:15:10.379Z,0.80
2023-04-15T00:17:42.053Z,1.42
2023-04-15T00:20:13.620Z,2.15
2023-04-15T00:22:45.217Z,2.40
2023-04-15T00:25:16.893Z,3.22
2023-04-15T00:27:48.805Z,2.05
2023-04-15T00:30:20.548Z,1.58
2023-04-15T00:32:52.713Z,1.92
2023-04-15T00:35:24.509Z,2.97
2023-04-15T00:37:56.126Z,2.38
2023-04-15T00:40:27.909Z,1.00
2023-04-15T00:43:00.042Z,0.73
2023-04-15T00:45:31.872Z,4.35
2023-04-15T00:48:04.324Z,1.38
2023-04-15T00:50:35.912Z,1.52
2023-04-15T00:53:07.436Z,0.52
2023-04-15T00:55:39.985Z,1.10
2023-04-15T00:58:11.546Z,3.42
2023-04-15T01:00:43.398Z,1.27
2023-04-15T01:03:15.518Z,2.15
2023-04-15T01:05:47.482Z,1.35
2023-04-15T01:08:19.385Z,0.85
2023-04-15T01:10:50.931Z,1.45
2023-04-15T01:13:24.001Z,1.00
2023-04-15T01:15:57.803Z,1.42
2023-04-15T01:18:31.475Z,2.60
2023-04-15T01:21:04.821Z,1.02
2023-04-15T01:23:38.616Z,0.98
2023-04-15T01:26:10.600Z,1.00
2023-04-15T01:28:42.671Z,1.70
2023-04-15T01:31:15.483Z,0.50
2023-04-15T01:33:47.194Z,1.17
2023-04-15T01:36:18.743Z,1.85
2023-04-15T01:38:51.366Z,2.35
2023-04-15T01:41:29.467Z,1.63
2023-04-15T01:44:01.611Z,1.75
2023-04-15T01:46:33.146Z,1.98
2023-04-15T01:49:04.810Z,1.00
2023-04-15T01:51:36.562Z,1.58
2023-04-15T01:54:08.366Z,1.17
2023-04-15T01:56:39.959Z,1.15
2023-04-15T01:59:11.576Z,1.02
2023-04-15T02:01:43.122Z,1.48
2023-04-15T02:04:16.942Z,1.23
2023-04-15T02:06:48.699Z,1.63
2023-04-15T02:09:20.652Z,2.30
2023-04-15T02:11:54.265Z,0.98
2023-04-15T02:14:26.068Z,1.08
2023-04-15T02:16:57.727Z,2.03
2023-04-15T02:19:29.398Z,0.80
2023-04-15T02:22:02.150Z,1.95
2023-04-15T02:24:34.892Z,0.65
2023-04-15T02:27:06.607Z,2.35
2023-04-15T02:29:38.217Z,2.78
2023-04-15T02:32:11.222Z,0.60
2023-04-15T02:34:43.217Z,1.33
2023-04-15T02:37:14.851Z,0.65
2023-04-15T02:39:47.245Z,2.03
2023-04-15T02:42:19.116Z,0.70
2023-04-15T02:44:50.584Z,0.95
2023-04-15T02:47:22.365Z,0.43
2023-04-15T02:49:53.961Z,2.88
2023-04-15T02:52:25.618Z,2.50
2023-04-15T02:55:00.699Z,1.10
2023-04-15T02:57:32.286Z,2.65
2023-04-15T03:00:06.200Z,2.80
2023-04-15T03:02:39.561Z,2.20
2023-04-15T03:05:14.852Z,2.28
2023-04-15T03:07:46.401Z,3.88
2023-04-15T03:10:18.076Z,3.38
2023-04-15T03:12:49.798Z,0.98
2023-04-15T03:15:21.462Z,4.55
2023-04-15T03:17:53.303Z,1.33
2023-04-15T03:20:25.017Z,2.40
2023-04-15T03:22:56.539Z,1.60
2023-04-15T03:25:30.960Z,0.40
2023-04-15T03:28:02.536Z,3.17
2023-04-15T03:30:34.183Z,1.52
2023-04-15T03:33:06.107Z,1.58
2023-04-15T03:35:38.389Z,0.88
2023-04-15T03:38:09.984Z,0.95
2023-04-15T03:40:41.754Z,1.10
2023-04-15T03:43:13.371Z,2.70
2023-04-15T03:45:45.251Z,1.48
2023-04-15T03:48:18.071Z,1.08
2023-04-15T03:50:49.924Z,1.50
2023-04-15T03:53:21.911Z,2.10
2023-04-15T03:55:53.513Z,1.38
2023-04-15T03:58:28.250Z,1.25
2023-04-15T04:00:59.749Z,1.58
2023-04-15T04:03:31.842Z,2.05
2023-04-15T04:06:03.632Z,0.70
2023-04-15T04:08:35.445Z,4.22
2023-04-15T04:11:07.013Z,1.42
2023-04-15T04:13:38.757Z,0.55
2023-04-15T04:16:10.572Z,1.30
2023-04-15T04:18:42.099Z,0.95
2023-04-15T04:21:13.819Z,1.42
2023-04-15T04:23:45.501Z,1.95
2023-04-15T04:26:17.065Z,1.52
2023-04-15T04:28:48.638Z,1.48
2023-04-15T04:31:20.442Z,1.40
2023-04-15T04:33:52.102Z,0.60
2023-04-15T04:36:23.734Z,1.55
2023-04-15T04:38:55.890Z,0.25
2023-04-15T04:41:27.508Z,2.33
2023-04-15T04:43:59.584Z,4.10
2023-04-15T04:46:31.177Z,1.48
2023-04-15T04:49:03.097Z,1.60
2023-04-15T04:51:34.869Z,1.55
2023-04-15T04:54:06.568Z,1.77
2023-04-15T04:56:39.713Z,1.27
2023-04-15T04:59:11.255Z,1.70
2023-04-15T05:01:42.962Z,1.65
2023-04-15T05:04:14.848Z,1.77
2023-04-15T05:06:46.617Z,1.15
2023-04-15T05:09:18.220Z,4.13
2023-04-15T05:11:49.892Z,1.73
2023-04-15T05:14:23.340Z,0.57
2023-04-15T05:16:55.013Z,1.60
2023-04-15T05:19:26.681Z,0.43
2023-04-15T05:21:58.194Z,1.20
2023-04-15T05:24:29.757Z,1.05
2023-04-15T05:27:02.058Z,2.05
2023-04-15T05:29:33.582Z,1.00
2023-04-15T05:32:05.918Z,4.45
2023-04-15T05:34:37.552Z,2.53
2023-04-15T05:37:09.121Z,1.55
2023-04-15T05:39:40.660Z,1.50
2023-04-15T05:42:12.284Z,1.73
2023-04-15T05:44:44.038Z,0.93
2023-04-15T05:47:16.037Z,1.50
2023-04-15T05:49:47.573Z,2.50
2023-04-15T05:52:19.201Z,1.02
2023-04-15T05:54:50.947Z,0.68
2023-04-15T05:57:23.062Z,2.17
2023-04-15T05:59:55.816Z,3.25
2023-04-15T06:02:27.977Z,1.83
2023-04-15T06:05:00.100Z,2.90
2023-04-15T06:07:31.771Z,0.82
2023-04-15T06:10:04.821Z,2.60
2023-04-15T06:12:36.506Z,1.48
2023-04-15T06:15:10.408Z,2.13
2023-04-15T06:17:41.968Z,2.95
2023-04-15T06:20:13.936Z,3.35
2023-04-15T06:22:45.500Z,1.92
2023-04-15T06:25:17.093Z,1.88
2023-04-15T06:27:48.801Z,2.72
2023-04-15T06:30:21.939Z,2.88
2023-04-15T06:32:55.353Z,0.82
2023-04-15T06:35:27.574Z,2.60
2023-04-15T06:37:59.080Z,3.08
2023-04-15T06:40:31.325Z,2.67
2023-04-15T06:43:02.902Z,3.85
2023-04-15T06:45:35.164Z,3.35
2023-04-15T06:48:07.015Z,4.47
2023-04-15T06:50:38.601Z,2.58
2023-04-15T06:53:10.178Z,4.38
2023-04-15T06:55:41.878Z,2.35
2023-04-15T06:58:13.423Z,2.03
2023-04-15T07:00:46.239Z,1.98
2023-04-15T07:03:17.950Z,3.25
2023-04-15T07:05:49.722Z,1.23
2023-04-15T07:08:21.285Z,2.50
2023-04-15T07:10:54.075Z,3.08
2023-04-15T07:13:25.797Z,3.42
2023-04-15T07:15:57.345Z,3.63
2023-04-15T07:18:29.234Z,2.63
2023-04-15T07:21:00.990Z,2.40
2023-04-15T07:23:33.373Z,2.25
2023-04-15T07:26:05.136Z,3.13
2023-04-15T07:28:36.628Z,2.95
2023-04-15T07:31:08.812Z,2.35
2023-04-15T07:33:40.371Z,1.58
2023-04-15T07:36:11.927Z,4.05
2023-04-15T07:38:43.521Z,3.53
2023-04-15T07:41:15.883Z,2.90
2023-04-15T07:43:48.739Z,3.22
2023-04-15T07:46:20.703Z,1.90
2023-04-15T07:48:52.231Z,2.33
2023-04-15T07:51:23.798Z,2.85
2023-04-15T07:53:56.253Z,1.58
2023-04-15T07:56:27.858Z,1.65
2023-04-15T07:59:02.353Z,1.88
2023-04-15T08:01:34.168Z,2.33
2023-04-15T08:04:05.854Z,1.90
2023-04-15T08:06:39.710Z,2.30
2023-04-15T08:09:11.558Z,2.30
2023-04-15T08:11:43.126Z,0.90
2023-04-15T08:14:14.737Z,1.33
2023-04-15T08:16:46.263Z,1.33
2023-04-15T08:19:17.798Z,0.68
2023-04-15T08:21:49.678Z,1.70
2023-04-15T08:24:21.420Z,1.27
2023-04-15T08:26:53.414Z,0.88
2023-04-15T08:29:24.926Z,1.13
2023-04-15T08:31:56.538Z,1.35
2023-04-15T08:34:28.778Z,1.27
2023-04-15T08:37:00.287Z,1.13
2023-04-15T08:39:31.815Z,1.85
2023-04-15T08:42:07.749Z,1.55
2023-04-15T08:44:40.380Z,1.50
2023-04-15T08:47:14.997Z,1.13
2023-04-15T08:49:48.474Z,1.20
2023-04-15T08:52:20.173Z,1.55
2023-04-15T08:54:56.757Z,1.70
2023-04-15T08:57:29.065Z,0.32
2023-04-15T09:00:05.747Z,1.20
2023-04-15T09:02:37.784Z,0.95
2023-04-15T09:05:09.885Z,0.77
2023-04-15T09:07:41.628Z,1.75
2023-04-15T09:10:13.219Z,1.52
2023-04-15T09:12:44.773Z,0.35
2023-04-15T09:15:16.904Z,0.95
2023-04-15T09:17:48.835Z,1.73
2023-04-15T09:20:21.175Z,0.82
2023-04-15T09:22:52.787Z,2.00
2023-04-15T09:25:24.812Z,1.02
2023-04-15T09:28:02.118Z,1.02
2023-04-15T09:30:34.169Z,1.85
2023-04-15T09:33:08.374Z,2.35
2023-04-15T09:35:40.668Z,1.83
2023-04-15T09:38:12.843Z,0.70
2023-04-15T09:40:44.433Z,0.75
2023-04-15T09:43:17.347Z,3.05
2023-04-15T09:45:53.986Z,1.98
2023-04-15T09:48:31.051Z,1.90
2023-04-15T09:51:02.725Z,0.75
2023-04-15T09:53:36.969Z,1.35
2023-04-15T09:56:10.419Z,1.17
2023-04-15T09:58:43.162Z,0.80
2023-04-15T10:01:14.865Z,0.73
2023-04-15T10:03:47.221Z,2.95
2023-04-15T10:06:19.312Z,1.90
2023-04-15T10:08:51.058Z,2.55
2023-04-15T10:11:24.316Z,2.35
2023-04-15T10:13:57.231Z,1.70
2023-04-15T10:16:32.527Z,2.08
2023-04-15T10:19:07.072Z,1.90
2023-04-15T10:21:39.335Z,4.30
2023-04-15T10:24:12.115Z,1.30
2023-04-15T10:26:45.060Z,1.80
2023-04-15T10:29:17.021Z,1.13
2023-04-15T10:31:48.954Z,0.77
2023-04-15T10:34:21.680Z,1.02
2023-04-15T10:37:01.614Z,2.05
2023-04-15T10:39:33.159Z,2.10
2023-04-15T10:42:15.286Z,2.28
2023-04-15T10:44:52.350Z,1.40
2023-04-15T10:47:24.728Z,1.13
2023-04-15T10:50:02.292Z,3.47
2023-04-15T10:52:34.010Z,1.95
2023-04-15T10:55:27.385Z,1.00
2023-04-15T11:00:33.237Z,0.90
2023-04-15T11:03:10.109Z,2.00
2023-04-15T11:05:41.962Z,1.85
2023-04-15T11:08:13.751Z,2.08
2023-04-15T11:10:45.396Z,1.33
2023-04-15T11:13:21.961Z,1.63
2023-04-15T11:15:58.317Z,3.88
2023-04-15T11:18:31.838Z,1.10
2023-04-15T11:21:06.952Z,1.83
2023-04-15T11:23:49.259Z,1.65
2023-04-15T11:26:27.010Z,1.90
2023-04-15T11:28:59.771Z,3.13
2023-04-15T11:31:31.244Z,1.08
2023-04-15T11:34:03.075Z,1.02
2023-04-15T11:36:34.621Z,3.15
2023-04-15T11:39:07.453Z,1.88
2023-04-15T11:41:42.993Z,1.58
2023-04-15T11:44:18.935Z,1.17
2023-04-15T11:46:50.667Z,2.42
2023-04-15T11:49:31.422Z,2.72
2023-04-15T11:52:11.753Z,3.47
2023-04-15T11:54:43.318Z,3.50
2023-04-15T11:57:14.906Z,3.17
2023-04-15T11:59:46.838Z,2.53
2023-04-15T12:02:18.609Z,2.95
2023-04-15T12:04:50.275Z,2.92
2023-04-15T12:07:21.860Z,2.72
2023-04-15T12:09:57.850Z,1.75
2023-04-15T12:12:29.376Z,2.85
2023-04-15T12:15:00.922Z,3.08
2023-04-15T12:17:51.527Z,2.67
2023-04-15T12:20:27.157Z,2.97
2023-04-15T12:23:08.058Z,5.38
2023-04-15T12:25:39.788Z,1.10
2023-04-15T12:28:12.012Z,2.13
2023-04-15T12:30:54.215Z,4.05
2023-04-15T12:33:33.740Z,3.13
2023-04-15T12:36:05.719Z,2.63
2023-04-15T12:38:37.322Z,2.97
2023-04-15T12:41:08.840Z,2.25
2023-04-15T12:43:40.344Z,1.83
2023-04-15T12:46:11.926Z,2.75
2023-04-15T12:48:43.592Z,2.88
2023-04-15T12:51:15.368Z,2.10
2023-04-15T12:53:47.908Z,4.00
2023-04-15T12:56:19.890Z,2.20
2023-04-15T12:58:51.582Z,1.52
2023-04-15T13:01:23.170Z,1.75
2023-04-15T13:03:54.839Z,1.73
2023-04-15T13:06:26.591Z,2.67
2023-04-15T13:09:04.596Z,1.75
2023-04-15T13:11:37.443Z,0.88
2023-04-15T13:14:11.810Z,1.42
2023-04-15T13:16:43.443Z,3.72
2023-04-15T13:19:15.315Z,2.70
2023-04-15T13:21:47.075Z,1.30
2023-04-15T13:24:18.659Z,3.33
2023-04-15T13:26:50.568Z,2.90
2023-04-15T13:29:22.273Z,0.82
2023-04-15T13:31:53.977Z,2.78
2023-04-15T13:34:25.773Z,1.63
2023-04-15T13:36:57.502Z,1.15
2023-04-15T13:39:29.052Z,1.20
2023-04-15T13:42:00.974Z,2.80
2023-04-15T13:44:32.542Z,1.55
2023-04-15T13:47:04.194Z,2.58
2023-04-15T13:49:36.043Z,1.95
2023-04-15T13:52:07.767Z,1.88
2023-04-15T13:54:39.501Z,11.15
2023-04-15T13:57:11.160Z,2.38
2023-04-15T13:59:44.025Z,3.70
2023-04-15T14:02:15.852Z,1.95
2023-04-15T14:04:47.772Z,2.28
2023-04-15T14:07:19.350Z,0.98
2023-04-15T14:09:51.143Z,2.47
2023-04-15T14:12:22.834Z,1.05
2023-04-15T14:14:54.572Z,3.60
2023-04-15T14:17:26.306Z,1.85
2023-04-15T14:19:58.023Z,2.72
2023-04-15T14:22:29.732Z,2.38
2023-04-15T14:25:01.810Z,3.85
2023-04-15T14:27:33.380Z,2.40
2023-04-15T14:30:05.907Z,2.45
2023-04-15T14:32:37.458Z,2.22
2023-04-15T14:35:09.515Z,0.75
2023-04-15T14:40:33.791Z,2.60
2023-04-15T14:43:05.459Z,2.15
2023-04-15T14:45:39.507Z,0.75
2023-04-15T14:48:13.892Z,1.95
2023-04-15T14:50:45.910Z,2.08
2023-04-15T14:53:17.415Z,1.45
2023-04-15T14:55:48.923Z,5.50
2023-04-15T14:58:20.453Z,1.02
2023-04-15T15:00:52.262Z,1.77
2023-04-15T15:03:24.026Z,2.42
2023-04-15T15:05:56.053Z,5.18
2023-04-15T15:08:27.774Z,2.60
2023-04-15T15:10:59.346Z,3.00
2023-04-15T15:13:31.508Z,1.20
2023-04-15T15:16:03.197Z,3.78
2023-04-15T15:18:36.259Z,2.35
2023-04-15T15:21:07.831Z,6.00
2023-04-15T15:23:39.421Z,4.25
2023-04-15T15:26:12.481Z,0.55
2023-04-15T15:28:45.465Z,1.92
2023-04-15T15:31:17.028Z,5.13
2023-04-15T15:33:49.284Z,0.95
2023-04-15T15:36:21.019Z,1.75
2023-04-15T15:38:52.741Z,2.20
2023-04-15T15:41:25.507Z,2.15
2023-04-15T15:43:57.074Z,1.08
2023-04-15T15:46:31.308Z,1.23
2023-04-15T15:49:04.045Z,3.67
2023-04-15T15:51:35.886Z,1.85
2023-04-15T15:54:07.428Z,1.70
2023-04-15T15:56:39.414Z,3.45
2023-04-15T15:59:11.003Z,2.65
2023-04-15T16:01:43.975Z,2.65
2023-04-15T16:04:15.829Z,1.90
2023-04-15T16:06:48.781Z,1.13
2023-04-15T16:09:20.470Z,2.35
2023-04-15T16:11:52.198Z,1.38
2023-04-15T16:14:27.033Z,2.97
2023-04-15T16:16:58.589Z,2.22
2023-04-15T16:19:30.719Z,1.73
2023-04-15T16:22:02.766Z,2.50
2023-04-15T16:24:34.922Z,2.75
2023-04-15T16:27:06.536Z,1.30
2023-04-15T16:29:37.998Z,2.83
2023-04-15T16:32:09.633Z,0.45
2023-04-15T16:34:42.843Z,2.45
2023-04-15T16:37:16.152Z,4.13
2023-04-15T16:39:48.015Z,3.05
2023-04-15T16:42:19.711Z,3.78
2023-04-15T16:44:51.361Z,5.55
2023-04-15T16:47:23.036Z,3.20
2023-04-15T16:49:54.695Z,3.03
2023-04-15T16:52:26.219Z,3.35
2023-04-15T16:54:57.822Z,4.28
2023-04-15T16:57:38.163Z,2.60
2023-04-15T17:00:23.151Z,0.75
2023-04-15T17:02:56.045Z,1.88
2023-04-15T17:05:27.940Z,1.83
2023-04-15T17:08:00.052Z,1.75
2023-04-15T17:10:31.564Z,2.40
2023-04-15T17:13:03.172Z,2.45
2023-04-15T17:15:34.865Z,2.05
2023-04-15T17:18:06.634Z,1.42
2023-04-15T17:20:39.699Z,2.85
2023-04-15T17:23:11.399Z,2.10
2023-04-15T17:25:42.921Z,2.50
2023-04-15T17:28:14.533Z,2.15
2023-04-15T17:30:46.283Z,3.22
2023-04-15T17:33:54.233Z,4.82
2023-04-15T17:36:09.569Z,4.28
2023-04-15T17:38:41.363Z,5.43
2023-04-15T17:41:12.978Z,5.60
2023-04-15T17:43:44.494Z,7.65
2023-04-15T17:46:17.347Z,5.90
2023-04-15T17:48:49.819Z,6.35
2023-04-15T17:51:21.833Z,3.28
2023-04-15T17:53:53.380Z,1.33
2023-04-15T17:56:27.443Z,2.20
2023-04-15T17:59:02.322Z,2.85
2023-04-15T18:01:34.291Z,2.75
2023-04-15T18:04:06.351Z,1.73
2023-04-15T18:06:38.433Z,2.60
2023-04-15T18:09:10.104Z,4.20
2023-04-15T18:11:43.876Z,2.92
2023-04-15T18:14:26.680Z,1.60
2023-04-15T18:17:03.314Z,1.55
2023-04-15T18:19:35.002Z,1.73
2023-04-15T18:22:06.911Z,2.05
2023-04-15T18:24:39.117Z,1.55
2023-04-15T18:27:10.885Z,2.00
2023-04-15T18:29:43.612Z,2.65
2023-04-15T18:32:15.151Z,1.67
2023-04-15T18:34:47.187Z,1.50
2023-04-15T18:37:18.749Z,3.05
2023-04-15T18:39:51.374Z,1.38
2023-04-15T18:42:24.227Z,1.90
2023-04-15T18:44:56.084Z,1.95
2023-04-15T18:47:28.000Z,1.95
2023-04-15T18:49:59.643Z,2.08
2023-04-15T18:52:31.448Z,5.82
2023-04-15T18:55:03.542Z,6.32
2023-04-15T18:57:36.144Z,3.88
2023-04-15T19:00:11.309Z,4.43
2023-04-15T19:02:44.237Z,2.60
2023-04-15T19:05:15.999Z,4.50
2023-04-15T19:07:47.586Z,4.05
2023-04-15T19:10:19.170Z,5.20
2023-04-15T19:12:50.823Z,3.05
2023-04-15T19:15:22.486Z,4.20
2023-04-15T19:17:54.444Z,4.72
2023-04-15T19:20:26.554Z,5.75
2023-04-15T19:22:58.248Z,4.18
2023-04-15T19:25:31.832Z,3.33
2023-04-15T19:28:04.049Z,3.70
2023-04-15T19:30:36.262Z,2.78
2023-04-15T19:33:08.005Z,3.63
2023-04-15T19:35:40.858Z,5.07
2023-04-15T19:38:12.539Z,9.77
2023-04-15T19:40:44.401Z,8.57
2023-04-15T19:43:15.997Z,9.30
2023-04-15T19:45:49.340Z,13.45
2023-04-15T19:48:21.553Z,10.85
2023-04-15T19:50:53.464Z,4.38
2023-04-15T19:53:25.752Z,3.25
2023-04-15T19:55:57.551Z,3.80
2023-04-15T19:58:29.398Z,4.45
2023-04-15T20:01:02.342Z,7.60
2023-04-15T20:03:34.519Z,4.28
2023-04-15T20:06:08.094Z,3.28
2023-04-15T20:08:39.727Z,5.93
2023-04-15T20:11:15.113Z,2.40
2023-04-15T20:13:47.422Z,2.35
2023-04-15T20:16:19.532Z,5.25
2023-04-15T20:18:52.688Z,2.30
2023-04-15T20:21:25.832Z,2.38
2023-04-15T20:23:58.655Z,2.95
2023-04-15T20:26:31.503Z,2.85
2023-04-15T20:29:03.288Z,3.22
2023-04-15T20:31:36.337Z,2.10
2023-04-15T20:34:09.977Z,3.15
2023-04-15T20:36:44.764Z,1.63
2023-04-15T20:39:17.919Z,2.55
2023-04-15T20:41:51.277Z,2.33
2023-04-15T20:44:24.219Z,2.30
2023-04-15T20:46:57.225Z,4.10
2023-04-15T20:49:36.971Z,2.00
2023-04-15T20:52:10.963Z,1.60
2023-04-15T20:54:42.877Z,2.70
2023-04-15T20:57:14.424Z,2.00
2023-04-15T20:59:46.510Z,2.25
2023-04-15T21:02:18.861Z,1.65
2023-04-15T21:04:50.593Z,5.25
2023-04-15T21:07:22.701Z,4.63
2023-04-15T21:09:55.944Z,3.47
2023-04-15T21:12:27.577Z,3.55
2023-04-15T21:14:59.254Z,2.20
2023-04-15T21:17:31.146Z,1.83
2023-04-15T21:20:03.747Z,3.72
2023-04-15T21:22:35.773Z,2.55
2023-04-15T21:25:07.962Z,3.67
2023-04-15T21:27:39.900Z,2.67
2023-04-15T21:30:12.470Z,4.20
2023-04-15T21:32:44.109Z,4.15
2023-04-15T21:35:16.135Z,3.78
2023-04-15T21:37:47.643Z,2.88
2023-04-15T21:40:19.476Z,4.00
2023-04-15T21:42:52.262Z,3.83
2023-04-15T21:45:24.001Z,3.50
2023-04-15T21:48:01.243Z,4.30
2023-04-15T21:50:39.710Z,3.50
2023-04-15T21:53:11.980Z,4.63
2023-04-15T21:55:43.573Z,3.70
2023-04-15T21:58:15.204Z,4.07
2023-04-15T22:00:48.897Z,5.63
2023-04-15T22:03:20.713Z,4.85
2023-04-15T22:05:52.767Z,6.00
2023-04-15T22:08:24.559Z,6.07
2023-04-15T22:10:56.186Z,8.10
2023-04-15T22:13:27.923Z,8.77
2023-04-15T22:15:59.801Z,5.72
2023-04-15T22:18:31.811Z,5.50
2023-04-15T22:21:03.787Z,6.65
2023-04-15T22:23:35.456Z,6.43
2023-04-15T22:26:07.586Z,13.05
2023-04-15T22:28:39.232Z,7.82
2023-04-15T22:31:11.429Z,7.05
2023-04-15T22:33:44.590Z,7.38
2023-04-15T22:36:16.288Z,7.85
2023-04-15T22:38:48.756Z,6.10
2023-04-15T22:41:21.016Z,7.22
2023-04-15T22:43:52.636Z,6.35
2023-04-15T22:46:25.957Z,8.77
2023-04-15T22:48:57.598Z,5.85
2023-04-15T22:51:30.368Z,7.63
2023-04-15T22:54:03.027Z,7.68
2023-04-15T22:56:34.668Z,7.75
2023-04-15T22:59:07.061Z,9.18
2023-04-15T23:01:38.926Z,6.53
2023-04-15T23:04:25.868Z,7.82
2023-04-15T23:06:58.031Z,10.40
2023-04-15T23:09:29.627Z,10.30
2023-04-15T23:12:02.228Z,7.75
2023-04-15T23:14:33.808Z,8.63
2023-04-15T23:17:05.615Z,7.88
2023-04-15T23:19:37.215Z,8.65
2023-04-15T23:22:10.680Z,7.05
2023-04-15T23:24:42.349Z,9.13
2023-04-15T23:27:13.977Z,8.77
2023-04-15T23:29:46.608Z,13.68
2023-04-15T23:32:18.220Z,10.27
2023-04-15T23:34:49.993Z,11.88
2023-04-15T23:37:23.129Z,16.05
2023-04-15T23:39:55.735Z,9.20
2023-04-15T23:42:27.359Z,10.23
2023-04-15T23:44:58.964Z,9.48
2023-04-15T23:47:31.211Z,10.20
2023-04-15T23:50:02.853Z,8.63
2023-04-15T23:52:35.037Z,8.00
2023-04-15T23:55:07.705Z,7.93
2023-04-15T23:57:41.044Z,5.90
